sensor_id;sensor_type;location;lat;lon;timestamp;pressure;altitude;pressure_sealevel;temperature;humidity
58690;BME280;44470;53.206;-6.106;2023-04-24T00:02:37;100778.06;;;21.76;50.77
58690;BME280;44470;53.206;-6.106;2023-04-24T00:05:07;100774.38;;;21.81;50.64
58690;BME280;44470;53.206;-6.106;2023-04-24T00:07:34;100775.88;;;21.91;50.05
58690;BME280;44470;53.206;-6.106;2023-04-24T00:10:00;100781.94;;;21.98;49.73
58690;BME280;44470;53.206;-6.106;2023-04-24T00:12:26;100779.34;;;21.95;50.03
58690;BME280;44470;53.206;-6.106;2023-04-24T00:14:52;100761.53;;;21.92;50.34
58690;BME280;44470;53.206;-6.106;2023-04-24T00:17:18;100744.06;;;21.78;50.51
58690;BME280;44470;53.206;-6.106;2023-04-24T00:19:48;100750.97;;;21.87;50.44
58690;BME280;44470;53.206;-6.106;2023-04-24T00:22:17;100769.72;;;21.87;50.96
58690;BME280;44470;53.206;-6.106;2023-04-24T00:24:43;100770.88;;;22.10;50.29
58690;BME280;44470;53.206;-6.106;2023-04-24T00:28:51;100764.34;;;27.98;37.39
58690;BME280;44470;53.206;-6.106;2023-04-24T00:31:17;100765.50;;;28.60;35.96
58690;BME280;44470;53.206;-6.106;2023-04-24T00:33:43;100761.78;;;28.78;35.50
58690;BME280;44470;53.206;-6.106;2023-04-24T00:36:09;100754.59;;;28.77;35.30
58690;BME280;44470;53.206;-6.106;2023-04-24T00:38:34;100754.84;;;28.72;35.11
58690;BME280;44470;53.206;-6.106;2023-04-24T00:41:00;100757.66;;;28.71;35.38
58690;BME280;44470;53.206;-6.106;2023-04-24T00:43:25;100765.41;;;28.61;35.47
58690;BME280;44470;53.206;-6.106;2023-04-24T00:45:52;100764.44;;;28.46;35.91
58690;BME280;44470;53.206;-6.106;2023-04-24T00:48:18;100754.81;;;28.24;36.23
58690;BME280;44470;53.206;-6.106;2023-04-24T00:50:45;100760.09;;;27.92;36.50
58690;BME280;44470;53.206;-6.106;2023-04-24T00:53:13;100759.81;;;27.81;36.43
58690;BME280;44470;53.206;-6.106;2023-04-24T00:55:38;100761.97;;;27.92;36.83
58690;BME280;44470;53.206;-6.106;2023-04-24T00:58:04;100758.19;;;27.94;36.20
58690;BME280;44470;53.206;-6.106;2023-04-24T01:00:30;100758.19;;;27.94;36.17
58690;BME280;44470;53.206;-6.106;2023-04-24T01:02:58;100754.38;;;27.98;36.48
58690;BME280;44470;53.206;-6.106;2023-04-24T01:05:25;100746.69;;;27.91;36.32
58690;BME280;44470;53.206;-6.106;2023-04-24T01:07:51;100753.91;;;27.90;36.28
58690;BME280;44470;53.206;-6.106;2023-04-24T01:10:17;100759.09;;;27.95;36.06
58690;BME280;44470;53.206;-6.106;2023-04-24T01:12:44;100749.47;;;27.89;35.99
58690;BME280;44470;53.206;-6.106;2023-04-24T01:15:11;100709.91;;;27.70;36.15
58690;BME280;44470;53.206;-6.106;2023-04-24T01:17:37;100752.78;;;27.94;36.08
58690;BME280;44470;53.206;-6.106;2023-04-24T01:20:04;100705.59;;;27.66;36.30
58690;BME280;44470;53.206;-6.106;2023-04-24T01:22:31;100762.31;;;28.02;36.42
58690;BME280;44470;53.206;-6.106;2023-04-24T01:24:56;100760.09;;;27.92;35.66
58690;BME280;44470;53.206;-6.106;2023-04-24T01:27:22;100768.84;;;27.97;36.16
58690;BME280;44470;53.206;-6.106;2023-04-24T01:29:48;100774.44;;;27.94;36.35
58690;BME280;44470;53.206;-6.106;2023-04-24T01:32:15;100777.91;;;27.96;35.93
58690;BME280;44470;53.206;-6.106;2023-04-24T01:34:40;100770.69;;;27.97;35.58
58690;BME280;44470;53.206;-6.106;2023-04-24T01:37:06;100781.53;;;27.97;35.95
58690;BME280;44470;53.206;-6.106;2023-04-24T01:39:32;100781.09;;;28.05;35.75
58690;BME280;44470;53.206;-6.106;2023-04-24T01:41:59;100764.09;;;27.85;35.81
58690;BME280;44470;53.206;-6.106;2023-04-24T01:44:26;100773.81;;;27.89;35.70
58690;BME280;44470;53.206;-6.106;2023-04-24T01:46:51;100776.28;;;27.94;36.13
58690;BME280;44470;53.206;-6.106;2023-04-24T01:49:19;100779.84;;;27.94;35.98
58690;BME280;44470;53.206;-6.106;2023-04-24T01:51:45;100782.41;;;27.80;36.31
58690;BME280;44470;53.206;-6.106;2023-04-24T01:54:11;100787.56;;;27.67;35.91
58690;BME280;44470;53.206;-6.106;2023-04-24T01:56:40;100794.66;;;27.69;36.40
58690;BME280;44470;53.206;-6.106;2023-04-24T01:59:07;100798.72;;;27.61;36.13
58690;BME280;44470;53.206;-6.106;2023-04-24T02:01:34;100793.53;;;27.56;36.48
58690;BME280;44470;53.206;-6.106;2023-04-24T02:04:01;100745.16;;;27.32;36.30
58690;BME280;44470;53.206;-6.106;2023-04-24T02:06:27;100801.34;;;27.62;36.20
58690;BME280;44470;53.206;-6.106;2023-04-24T02:08:53;100794.25;;;27.60;36.33
58690;BME280;44470;53.206;-6.106;2023-04-24T02:11:18;100783.97;;;27.49;36.50
58690;BME280;44470;53.206;-6.106;2023-04-24T02:13:44;100797.69;;;27.63;36.25
58690;BME280;44470;53.206;-6.106;2023-04-24T02:16:10;100792.56;;;27.57;36.51
58690;BME280;44470;53.206;-6.106;2023-04-24T02:18:35;100790.75;;;27.58;36.21
58690;BME280;44470;53.206;-6.106;2023-04-24T02:21:01;100785.59;;;27.53;36.47
58690;BME280;44470;53.206;-6.106;2023-04-24T02:23:26;100799.75;;;27.58;36.42
58690;BME280;44470;53.206;-6.106;2023-04-24T02:25:52;100798.88;;;27.58;36.43
58690;BME280;44470;53.206;-6.106;2023-04-24T02:28:19;100796.25;;;27.56;36.52
58690;BME280;44470;53.206;-6.106;2023-04-24T02:30:44;100807.06;;;27.56;36.54
58690;BME280;44470;53.206;-6.106;2023-04-24T02:33:11;100796.41;;;27.53;36.57
58690;BME280;44470;53.206;-6.106;2023-04-24T02:35:36;100802.47;;;27.58;36.67
58690;BME280;44470;53.206;-6.106;2023-04-24T02:38:02;100810.88;;;27.69;36.65
58690;BME280;44470;53.206;-6.106;2023-04-24T02:40:28;100804.44;;;27.72;36.30
58690;BME280;44470;53.206;-6.106;2023-04-24T02:42:54;100810.88;;;27.69;35.99
58690;BME280;44470;53.206;-6.106;2023-04-24T02:45:19;100807.41;;;27.67;35.86
58690;BME280;44470;53.206;-6.106;2023-04-24T02:47:45;100808.34;;;27.66;35.73
58690;BME280;44470;53.206;-6.106;2023-04-24T02:50:10;100814.72;;;27.65;35.96
58690;BME280;44470;53.206;-6.106;2023-04-24T02:52:36;100805.97;;;27.60;35.81
58690;BME280;44470;53.206;-6.106;2023-04-24T02:55:02;100817.25;;;27.68;35.95
58690;BME280;44470;53.206;-6.106;2023-04-24T02:57:27;100815.50;;;27.67;35.84
58690;BME280;44470;53.206;-6.106;2023-04-24T02:59:53;100771.56;;;27.45;35.86
58690;BME280;44470;53.206;-6.106;2023-04-24T03:02:18;100818.22;;;27.67;35.57
58690;BME280;44470;53.206;-6.106;2023-04-24T03:04:46;100822.56;;;27.70;35.79
58690;BME280;44470;53.206;-6.106;2023-04-24T03:07:13;100825.44;;;27.67;35.73
58690;BME280;44470;53.206;-6.106;2023-04-24T03:09:40;100797.19;;;27.55;35.64
58690;BME280;44470;53.206;-6.106;2023-04-24T03:12:06;100820.97;;;27.66;35.72
58690;BME280;44470;53.206;-6.106;2023-04-24T03:14:31;100819.88;;;27.70;35.92
58690;BME280;44470;53.206;-6.106;2023-04-24T03:16:57;100816.13;;;27.73;36.00
58690;BME280;44470;53.206;-6.106;2023-04-24T03:19:23;100829.19;;;27.82;35.89
58690;BME280;44470;53.206;-6.106;2023-04-24T03:21:58;100832.84;;;27.81;35.73
58690;BME280;44470;53.206;-6.106;2023-04-24T03:24:23;100834.25;;;27.88;35.77
58690;BME280;44470;53.206;-6.106;2023-04-24T03:26:49;100770.03;;;27.58;35.55
58690;BME280;44470;53.206;-6.106;2023-04-24T03:29:28;100817.06;;;27.89;35.58
58690;BME280;44470;53.206;-6.106;2023-04-24T03:31:54;100830.59;;;27.89;35.54
58690;BME280;44470;53.206;-6.106;2023-04-24T03:34:19;100818.03;;;27.88;35.58
58690;BME280;44470;53.206;-6.106;2023-04-24T03:36:45;100830.94;;;27.83;35.59
58690;BME280;44470;53.206;-6.106;2023-04-24T03:39:13;100729.19;;;27.27;35.70
58690;BME280;44470;53.206;-6.106;2023-04-24T03:41:44;100818.53;;;27.79;35.74
58690;BME280;44470;53.206;-6.106;2023-04-24T03:44:15;100822.19;;;27.78;35.42
58690;BME280;44470;53.206;-6.106;2023-04-24T03:46:40;100821.44;;;27.74;35.56
58690;BME280;44470;53.206;-6.106;2023-04-24T03:49:06;100820.09;;;27.83;35.60
58690;BME280;44470;53.206;-6.106;2023-04-24T03:51:35;100818.75;;;27.74;35.71
58690;BME280;44470;53.206;-6.106;2023-04-24T03:54:13;100817.63;;;27.78;35.60
58690;BME280;44470;53.206;-6.106;2023-04-24T03:56:39;100824.09;;;27.76;35.48
58690;BME280;44470;53.206;-6.106;2023-04-24T03:59:04;100783.03;;;27.50;35.55
58690;BME280;44470;53.206;-6.106;2023-04-24T04:01:30;100824.94;;;27.76;35.68
58690;BME280;44470;53.206;-6.106;2023-04-24T04:04:00;100811.84;;;27.68;35.83
58690;BME280;44470;53.206;-6.106;2023-04-24T04:06:28;100744.69;;;27.24;35.47
58690;BME280;44470;53.206;-6.106;2023-04-24T04:08:55;100819.00;;;27.69;35.80
58690;BME280;44470;53.206;-6.106;2023-04-24T04:11:20;100822.50;;;27.72;35.77
58690;BME280;44470;53.206;-6.106;2023-04-24T04:13:46;100823.78;;;27.64;35.65
58690;BME280;44470;53.206;-6.106;2023-04-24T04:16:15;100827.59;;;27.78;35.76
58690;BME280;44470;53.206;-6.106;2023-04-24T04:18:44;100807.88;;;27.76;35.74
58690;BME280;44470;53.206;-6.106;2023-04-24T04:21:11;100763.56;;;27.43;35.87
58690;BME280;44470;53.206;-6.106;2023-04-24T04:23:36;100828.53;;;27.77;35.68
58690;BME280;44470;53.206;-6.106;2023-04-24T04:26:07;100814.47;;;27.70;35.70
58690;BME280;44470;53.206;-6.106;2023-04-24T04:28:53;100824.88;;;27.78;35.60
58690;BME280;44470;53.206;-6.106;2023-04-24T04:31:22;100817.94;;;27.72;35.72
58690;BME280;44470;53.206;-6.106;2023-04-24T04:33:48;100821.44;;;27.74;35.80
58690;BME280;44470;53.206;-6.106;2023-04-24T04:36:14;100820.59;;;27.74;35.71
58690;BME280;44470;53.206;-6.106;2023-04-24T04:38:44;100819.00;;;27.69;35.46
58690;BME280;44470;53.206;-6.106;2023-04-24T04:41:35;100781.50;;;27.44;36.03
58690;BME280;44470;53.206;-6.106;2023-04-24T04:44:02;100817.41;;;27.65;35.70
58690;BME280;44470;53.206;-6.106;2023-04-24T04:46:31;100827.28;;;27.66;35.65
58690;BME280;44470;53.206;-6.106;2023-04-24T04:49:31;100749.22;;;27.23;35.95
58690;BME280;44470;53.206;-6.106;2023-04-24T04:51:58;100822.09;;;27.62;35.89
58690;BME280;44470;53.206;-6.106;2023-04-24T04:54:25;100841.34;;;27.73;35.88
58690;BME280;44470;53.206;-6.106;2023-04-24T04:56:50;100846.59;;;27.76;35.85
58690;BME280;44470;53.206;-6.106;2023-04-24T04:59:19;100849.22;;;27.78;35.67
58690;BME280;44470;53.206;-6.106;2023-04-24T05:01:46;100845.94;;;27.71;35.88
58690;BME280;44470;53.206;-6.106;2023-04-24T05:04:14;100850.72;;;27.83;35.99
58690;BME280;44470;53.206;-6.106;2023-04-24T05:06:40;100842.91;;;27.77;35.91
58690;BME280;44470;53.206;-6.106;2023-04-24T05:09:05;100861.63;;;27.82;36.08
58690;BME280;44470;53.206;-6.106;2023-04-24T05:11:53;100806.47;;;27.49;36.25
58690;BME280;44470;53.206;-6.106;2023-04-24T05:14:20;100858.03;;;27.81;35.98
58690;BME280;44470;53.206;-6.106;2023-04-24T05:16:45;100868.22;;;27.76;35.87
58690;BME280;44470;53.206;-6.106;2023-04-24T05:19:13;100851.44;;;27.69;36.15
58690;BME280;44470;53.206;-6.106;2023-04-24T05:21:40;100863.53;;;27.80;36.06
58690;BME280;44470;53.206;-6.106;2023-04-24T05:24:07;100862.09;;;27.73;35.90
58690;BME280;44470;53.206;-6.106;2023-04-24T05:26:51;100867.50;;;27.73;36.15
58690;BME280;44470;53.206;-6.106;2023-04-24T05:29:21;100864.16;;;27.67;36.10
58690;BME280;44470;53.206;-6.106;2023-04-24T05:31:47;100882.53;;;27.78;36.03
58690;BME280;44470;53.206;-6.106;2023-04-24T05:34:13;100846.09;;;27.50;36.07
58690;BME280;44470;53.206;-6.106;2023-04-24T05:36:42;100845.34;;;27.47;36.01
58690;BME280;44470;53.206;-6.106;2023-04-24T05:39:08;100890.91;;;27.74;36.06
58690;BME280;44470;53.206;-6.106;2023-04-24T05:41:34;100888.09;;;27.75;35.94
58690;BME280;44470;53.206;-6.106;2023-04-24T05:43:59;100889.69;;;27.79;36.52
58690;BME280;44470;53.206;-6.106;2023-04-24T05:46:26;100904.00;;;27.81;35.92
58690;BME280;44470;53.206;-6.106;2023-04-24T05:48:51;100903.31;;;27.78;35.80
58690;BME280;44470;53.206;-6.106;2023-04-24T05:51:17;100902.41;;;27.77;35.67
58690;BME280;44470;53.206;-6.106;2023-04-24T05:53:42;100910.78;;;27.73;35.83
58690;BME280;44470;53.206;-6.106;2023-04-24T05:56:09;100917.94;;;27.74;35.54
58690;BME280;44470;53.206;-6.106;2023-04-24T05:58:35;100921.44;;;27.76;35.61
58690;BME280;44470;53.206;-6.106;2023-04-24T06:01:00;100933.22;;;27.75;35.68
58690;BME280;44470;53.206;-6.106;2023-04-24T06:03:27;100939.41;;;27.77;35.50
58690;BME280;44470;53.206;-6.106;2023-04-24T06:05:53;100902.78;;;27.52;35.51
58690;BME280;44470;53.206;-6.106;2023-04-24T06:08:20;100894.13;;;27.44;35.74
58690;BME280;44470;53.206;-6.106;2023-04-24T06:10:47;100908.75;;;27.39;35.96
58690;BME280;44470;53.206;-6.106;2023-04-24T06:13:13;100928.31;;;27.45;35.76
58690;BME280;44470;53.206;-6.106;2023-04-24T06:15:43;100907.31;;;27.32;35.86
58690;BME280;44470;53.206;-6.106;2023-04-24T06:18:15;100960.19;;;27.57;35.89
58690;BME280;44470;53.206;-6.106;2023-04-24T06:20:41;100959.47;;;27.53;35.50
58690;BME280;44470;53.206;-6.106;2023-04-24T06:23:08;100974.38;;;27.62;35.72
58690;BME280;44470;53.206;-6.106;2023-04-24T06:25:34;100951.69;;;27.46;35.43
58690;BME280;44470;53.206;-6.106;2023-04-24T06:28:00;100983.44;;;27.61;35.56
58690;BME280;44470;53.206;-6.106;2023-04-24T06:30:28;100938.03;;;27.30;35.71
58690;BME280;44470;53.206;-6.106;2023-04-24T06:32:54;100992.72;;;27.55;35.81
58690;BME280;44470;53.206;-6.106;2023-04-24T06:35:20;100991.75;;;27.56;35.96
58690;BME280;44470;53.206;-6.106;2023-04-24T06:37:45;100988.91;;;27.60;35.28
58690;BME280;44470;53.206;-6.106;2023-04-24T06:40:11;101000.69;;;27.59;35.65
58690;BME280;44470;53.206;-6.106;2023-04-24T06:42:37;100998.19;;;27.54;35.47
58690;BME280;44470;53.206;-6.106;2023-04-24T06:45:03;101008.13;;;27.53;35.59
58690;BME280;44470;53.206;-6.106;2023-04-24T06:47:29;101009.16;;;27.51;35.68
58690;BME280;44470;53.206;-6.106;2023-04-24T06:53:42;101017.91;;;27.56;35.63
58690;BME280;44470;53.206;-6.106;2023-04-24T06:56:07;101021.56;;;27.55;35.56
58690;BME280;44470;53.206;-6.106;2023-04-24T06:58:33;101027.22;;;27.49;35.95
58690;BME280;44470;53.206;-6.106;2023-04-24T07:00:58;100978.75;;;27.07;35.78
58690;BME280;44470;53.206;-6.106;2023-04-24T07:03:24;101024.31;;;27.34;35.69
58690;BME280;44470;53.206;-6.106;2023-04-24T07:05:49;101048.28;;;27.42;35.58
58690;BME280;44470;53.206;-6.106;2023-04-24T07:08:15;101041.56;;;27.32;35.81
58690;BME280;44470;53.206;-6.106;2023-04-24T07:10:42;101058.50;;;27.35;35.90
58690;BME280;44470;53.206;-6.106;2023-04-24T07:13:08;101048.84;;;27.30;35.82
58690;BME280;44470;53.206;-6.106;2023-04-24T07:15:34;101024.91;;;27.01;35.86
58690;BME280;44470;53.206;-6.106;2023-04-24T07:18:00;101063.91;;;27.35;36.12
58690;BME280;44470;53.206;-6.106;2023-04-24T07:20:25;101039.78;;;27.11;35.90
58690;BME280;44470;53.206;-6.106;2023-04-24T07:22:51;101060.69;;;27.27;35.92
58690;BME280;44470;53.206;-6.106;2023-04-24T07:25:19;101078.88;;;27.42;35.97
58690;BME280;44470;53.206;-6.106;2023-04-24T07:27:44;101076.63;;;27.33;36.06
58690;BME280;44470;53.206;-6.106;2023-04-24T07:30:10;101047.50;;;27.19;35.84
58690;BME280;44470;53.206;-6.106;2023-04-24T07:32:36;101097.22;;;27.36;36.26
58690;BME280;44470;53.206;-6.106;2023-04-24T07:35:01;101090.19;;;27.72;36.08
58690;BME280;44470;53.206;-6.106;2023-04-24T07:37:28;101079.00;;;28.18;34.81
58690;BME280;44470;53.206;-6.106;2023-04-24T07:39:54;101098.56;;;28.04;35.58
58690;BME280;44470;53.206;-6.106;2023-04-24T07:42:19;101103.72;;;27.91;35.19
58690;BME280;44470;53.206;-6.106;2023-04-24T07:44:45;101099.41;;;27.47;34.86
58690;BME280;44470;53.206;-6.106;2023-04-24T07:47:13;101091.69;;;27.39;35.02
58690;BME280;44470;53.206;-6.106;2023-04-24T07:49:41;101085.00;;;27.27;34.98
58690;BME280;44470;53.206;-6.106;2023-04-24T07:52:07;101064.25;;;27.08;34.86
58690;BME280;44470;53.206;-6.106;2023-04-24T07:54:33;101078.19;;;27.18;35.08
58690;BME280;44470;53.206;-6.106;2023-04-24T07:56:58;101115.47;;;27.51;34.80
58690;BME280;44470;53.206;-6.106;2023-04-24T07:59:24;101088.84;;;27.42;35.17
58690;BME280;44470;53.206;-6.106;2023-04-24T08:01:49;101081.88;;;27.36;34.49
58690;BME280;44470;53.206;-6.106;2023-04-24T08:04:15;101115.22;;;27.56;34.34
58690;BME280;44470;53.206;-6.106;2023-04-24T08:06:40;101122.13;;;27.63;34.54
58690;BME280;44470;53.206;-6.106;2023-04-24T08:09:06;101114.84;;;27.84;33.91
58690;BME280;44470;53.206;-6.106;2023-04-24T08:11:31;101112.94;;;27.87;33.72
58690;BME280;44470;53.206;-6.106;2023-04-24T08:13:57;101123.22;;;27.97;33.63
58690;BME280;44470;53.206;-6.106;2023-04-24T08:16:23;101095.97;;;27.83;34.09
58690;BME280;44470;53.206;-6.106;2023-04-24T08:18:49;101131.69;;;28.09;34.14
58690;BME280;44470;53.206;-6.106;2023-04-24T08:21:15;101136.16;;;28.10;34.56
58690;BME280;44470;53.206;-6.106;2023-04-24T08:23:42;101133.38;;;28.11;34.45
58690;BME280;44470;53.206;-6.106;2023-04-24T08:26:08;101101.81;;;27.93;34.45
58690;BME280;44470;53.206;-6.106;2023-04-24T08:28:34;101137.81;;;28.14;34.39
58690;BME280;44470;53.206;-6.106;2023-04-24T08:30:59;101128.75;;;28.15;34.62
58690;BME280;44470;53.206;-6.106;2023-04-24T08:33:25;101130.47;;;27.97;34.49
58690;BME280;44470;53.206;-6.106;2023-04-24T08:35:50;101125.03;;;28.90;32.60
58690;BME280;44470;53.206;-6.106;2023-04-24T08:38:16;101098.97;;;27.77;34.77
58690;BME280;44470;53.206;-6.106;2023-04-24T08:40:42;101101.66;;;27.96;34.05
58690;BME280;44470;53.206;-6.106;2023-04-24T08:43:08;101124.06;;;28.36;33.57
58690;BME280;44470;53.206;-6.106;2023-04-24T08:45:35;101138.69;;;28.51;33.64
58690;BME280;44470;53.206;-6.106;2023-04-24T08:48:02;101126.97;;;27.95;34.53
58690;BME280;44470;53.206;-6.106;2023-04-24T08:50:28;101101.66;;;27.96;34.23
58690;BME280;44470;53.206;-6.106;2023-04-24T08:52:54;101152.41;;;28.29;34.00
58690;BME280;44470;53.206;-6.106;2023-04-24T08:55:20;101134.00;;;28.18;33.92
58690;BME280;44470;53.206;-6.106;2023-04-24T08:57:51;101152.00;;;28.56;33.32
58690;BME280;44470;53.206;-6.106;2023-04-24T09:00:19;101152.81;;;28.00;34.42
58690;BME280;44470;53.206;-6.106;2023-04-24T09:02:45;101149.16;;;28.02;34.40
58690;BME280;44470;53.206;-6.106;2023-04-24T09:05:12;101154.56;;;28.22;33.70
58690;BME280;44470;53.206;-6.106;2023-04-24T09:07:41;101162.81;;;28.56;33.24
58690;BME280;44470;53.206;-6.106;2023-04-24T09:10:10;101153.81;;;28.55;32.69
58690;BME280;44470;53.206;-6.106;2023-04-24T09:12:36;101158.34;;;27.99;34.42
58690;BME280;44470;53.206;-6.106;2023-04-24T09:15:02;101159.75;;;27.68;34.92
58690;BME280;44470;53.206;-6.106;2023-04-24T09:17:32;101171.59;;;28.24;33.88
58690;BME280;44470;53.206;-6.106;2023-04-24T09:19:58;101165.25;;;28.43;33.68
58690;BME280;44470;53.206;-6.106;2023-04-24T09:22:23;101178.00;;;28.22;33.60
58690;BME280;44470;53.206;-6.106;2023-04-24T09:24:59;101175.63;;;28.52;33.21
58690;BME280;44470;53.206;-6.106;2023-04-24T09:27:28;101177.06;;;28.60;32.86
58690;BME280;44470;53.206;-6.106;2023-04-24T09:29:57;101177.06;;;28.60;32.83
58690;BME280;44470;53.206;-6.106;2023-04-24T09:32:24;101180.56;;;28.62;32.95
58690;BME280;44470;53.206;-6.106;2023-04-24T09:35:13;101196.69;;;28.65;33.09
58690;BME280;44470;53.206;-6.106;2023-04-24T09:37:41;101152.66;;;28.24;32.95
58690;BME280;44470;53.206;-6.106;2023-04-24T09:42:43;101196.53;;;28.68;32.33
58690;BME280;44470;53.206;-6.106;2023-04-24T09:45:09;101199.31;;;28.09;34.05
58690;BME280;44470;53.206;-6.106;2023-04-24T09:47:39;101203.41;;;28.38;33.13
58690;BME280;44470;53.206;-6.106;2023-04-24T09:50:15;101205.19;;;28.57;32.69
58690;BME280;44470;53.206;-6.106;2023-04-24T09:52:42;101169.66;;;28.46;32.55
58690;BME280;44470;53.206;-6.106;2023-04-24T09:55:27;101206.28;;;28.72;32.51
58690;BME280;44470;53.206;-6.106;2023-04-24T09:58:00;101211.69;;;28.72;32.66
58690;BME280;44470;53.206;-6.106;2023-04-24T10:00:28;101216.16;;;28.73;32.26
58690;BME280;44470;53.206;-6.106;2023-04-24T10:03:00;101211.09;;;28.65;32.73
58690;BME280;44470;53.206;-6.106;2023-04-24T10:05:31;101218.75;;;28.75;32.36
58690;BME280;44470;53.206;-6.106;2023-04-24T10:08:02;101228.47;;;28.80;32.63
58690;BME280;44470;53.206;-6.106;2023-04-24T10:10:29;101214.41;;;28.72;32.35
58690;BME280;44470;53.206;-6.106;2023-04-24T10:12:55;101229.41;;;28.79;31.73
58690;BME280;44470;53.206;-6.106;2023-04-24T10:15:21;101214.75;;;28.07;33.50
58690;BME280;44470;53.206;-6.106;2023-04-24T10:17:48;101184.22;;;28.43;32.24
58690;BME280;44470;53.206;-6.106;2023-04-24T10:20:25;101216.81;;;28.02;33.31
58690;BME280;44470;53.206;-6.106;2023-04-24T10:22:52;101216.97;;;28.56;32.30
58690;BME280;44470;53.206;-6.106;2023-04-24T10:25:23;101217.41;;;28.66;32.21
58690;BME280;44470;53.206;-6.106;2023-04-24T10:27:50;101233.09;;;28.77;31.76
58690;BME280;44470;53.206;-6.106;2023-04-24T10:30:16;101242.59;;;28.68;32.94
58690;BME280;44470;53.206;-6.106;2023-04-24T10:32:42;101235.34;;;28.49;32.88
58690;BME280;44470;53.206;-6.106;2023-04-24T10:35:08;101238.69;;;28.54;33.04
58690;BME280;44470;53.206;-6.106;2023-04-24T10:37:42;101236.66;;;28.60;31.98
58690;BME280;44470;53.206;-6.106;2023-04-24T10:40:09;101231.97;;;28.63;32.31
58690;BME280;44470;53.206;-6.106;2023-04-24T10:42:39;101236.97;;;27.94;33.47
58690;BME280;44470;53.206;-6.106;2023-04-24T10:45:06;101244.19;;;28.72;32.00
58690;BME280;44470;53.206;-6.106;2023-04-24T10:47:41;101255.41;;;28.83;31.87
58690;BME280;44470;53.206;-6.106;2023-04-24T10:50:10;101256.19;;;28.85;31.77
58690;BME280;44470;53.206;-6.106;2023-04-24T10:52:49;101264.22;;;28.87;31.93
58690;BME280;44470;53.206;-6.106;2023-04-24T10:55:39;101261.47;;;28.89;31.85
58690;BME280;44470;53.206;-6.106;2023-04-24T10:58:05;101262.31;;;28.89;31.69
58690;BME280;44470;53.206;-6.106;2023-04-24T11:00:30;101260.50;;;28.90;31.66
58690;BME280;44470;53.206;-6.106;2023-04-24T11:02:56;101263.84;;;28.95;31.66
58690;BME280;44470;53.206;-6.106;2023-04-24T11:05:49;101259.53;;;28.91;31.92
58690;BME280;44470;53.206;-6.106;2023-04-24T11:08:28;101273.09;;;28.91;31.83
58690;BME280;44470;53.206;-6.106;2023-04-24T11:11:18;101224.81;;;28.62;31.83
58690;BME280;44470;53.206;-6.106;2023-04-24T11:19:07;101285.53;;;28.95;32.13
58690;BME280;44470;53.206;-6.106;2023-04-24T11:21:58;101299.22;;;28.92;31.93
58690;BME280;44470;53.206;-6.106;2023-04-24T11:24:37;101277.28;;;28.79;31.89
58690;BME280;44470;53.206;-6.106;2023-04-24T11:27:17;101303.63;;;28.94;31.73
58690;BME280;44470;53.206;-6.106;2023-04-24T11:32:30;101303.53;;;28.96;31.47
58690;BME280;44470;53.206;-6.106;2023-04-24T11:37:54;101304.19;;;29.01;31.75
58690;BME280;44470;53.206;-6.106;2023-04-24T11:40:21;101310.81;;;28.95;31.78
58690;BME280;44470;53.206;-6.106;2023-04-24T11:42:52;101314.22;;;28.99;31.74
58690;BME280;44470;53.206;-6.106;2023-04-24T11:45:21;101319.66;;;28.99;31.61
58690;BME280;44470;53.206;-6.106;2023-04-24T11:47:47;101285.41;;;28.79;31.70
58690;BME280;44470;53.206;-6.106;2023-04-24T11:50:15;101327.78;;;28.99;31.59
58690;BME280;44470;53.206;-6.106;2023-04-24T11:52:42;101293.47;;;28.80;31.85
58690;BME280;44470;53.206;-6.106;2023-04-24T11:55:29;101326.81;;;29.00;31.71
58690;BME280;44470;53.206;-6.106;2023-04-24T11:57:58;101289.97;;;28.78;31.66
58690;BME280;44470;53.206;-6.106;2023-04-24T12:00:29;101332.25;;;29.00;31.68
58690;BME280;44470;53.206;-6.106;2023-04-24T12:03:10;101286.47;;;28.75;31.61
58690;BME280;44470;53.206;-6.106;2023-04-24T12:05:41;101332.09;;;29.03;31.44
58690;BME280;44470;53.206;-6.106;2023-04-24T12:08:07;101290.09;;;28.75;31.52
58690;BME280;44470;53.206;-6.106;2023-04-24T12:10:33;101341.91;;;29.06;31.58
58690;BME280;44470;53.206;-6.106;2023-04-24T12:13:05;101348.28;;;29.05;31.63
58690;BME280;44470;53.206;-6.106;2023-04-24T12:15:31;101345.78;;;29.00;31.39
58690;BME280;44470;53.206;-6.106;2023-04-24T12:17:56;101322.88;;;28.88;31.81
58690;BME280;44470;53.206;-6.106;2023-04-24T12:20:30;101356.31;;;29.06;31.52
58690;BME280;44470;53.206;-6.106;2023-04-24T12:22:57;101348.50;;;29.00;31.33
58690;BME280;44470;53.206;-6.106;2023-04-24T12:25:29;101343.97;;;29.00;31.49
58690;BME280;44470;53.206;-6.106;2023-04-24T12:28:15;101350.84;;;29.08;31.47
58690;BME280;44470;53.206;-6.106;2023-04-24T12:30:47;101347.94;;;28.93;32.05
58690;BME280;44470;53.206;-6.106;2023-04-24T12:33:18;101344.09;;;28.59;32.69
58690;BME280;44470;53.206;-6.106;2023-04-24T12:35:45;101347.25;;;28.69;32.33
58690;BME280;44470;53.206;-6.106;2023-04-24T12:38:12;101365.94;;;28.94;31.59
58690;BME280;44470;53.206;-6.106;2023-04-24T12:40:41;101374.06;;;28.75;32.04
58690;BME280;44470;53.206;-6.106;2023-04-24T12:43:19;101358.72;;;28.36;33.28
58690;BME280;44470;53.206;-6.106;2023-04-24T12:45:48;101372.84;;;28.82;31.93
58690;BME280;44470;53.206;-6.106;2023-04-24T12:48:14;101367.25;;;28.85;31.76
58690;BME280;44470;53.206;-6.106;2023-04-24T12:50:39;101373.53;;;28.86;31.80
58690;BME280;44470;53.206;-6.106;2023-04-24T12:53:06;101379.06;;;28.84;31.79
58690;BME280;44470;53.206;-6.106;2023-04-24T12:55:32;101353.34;;;28.74;31.66
58690;BME280;44470;53.206;-6.106;2023-04-24T12:57:57;101383.06;;;28.95;31.69
58690;BME280;44470;53.206;-6.106;2023-04-24T13:00:23;101381.47;;;28.91;31.71
58690;BME280;44470;53.206;-6.106;2023-04-24T13:02:49;101396.84;;;28.90;31.72
58690;BME280;44470;53.206;-6.106;2023-04-24T13:05:14;101398.47;;;28.94;31.69